Time;durP1;ratioP1;P1;durP2;ratioP2;P2;SDS_P1;SDS_P2;PMS_P1;PMS_P2;Temp;Humidity;BMP_temperature;BMP_pressure;BME280_temperature;BME280_humidity;BME280_pressure;Samples;Min_cycle;Max_cycle;Signal;HPM_P1;HPM_P2
2023/11/16 00:00:56;;;;;;;0.50;0.50;;;7.50;99.90;;;;;;4401568;32;20132;-59
2023/11/16 00:03:23;;;;;;;0.47;0.47;;;7.50;99.90;;;;;;4403908;32;20177;-59
2023/11/16 00:05:49;;;;;;;0.30;0.30;;;7.50;99.90;;;;;;4400772;32;20509;-59
2023/11/16 00:08:16;;;;;;;0.30;0.30;;;7.60;99.90;;;;;;4386903;32;20059;-59
2023/11/16 00:10:42;;;;;;;0.30;0.30;;;7.60;99.90;;;;;;4403455;32;20552;-59
2023/11/16 00:13:09;;;;;;;0.20;0.20;;;7.60;99.90;;;;;;4400670;32;20066;-59
2023/11/16 00:15:35;;;;;;;0.30;0.30;;;7.50;99.90;;;;;;4400649;32;20081;-59
2023/11/16 00:18:04;;;;;;;0.32;0.32;;;7.50;99.90;;;;;;4403539;32;20090;-58
2023/11/16 00:20:30;;;;;;;0.30;0.30;;;7.50;99.90;;;;;;4403347;32;20070;-58
2023/11/16 00:22:56;;;;;;;0.98;0.68;;;7.60;99.90;;;;;;4402651;32;20133;-59
2023/11/16 00:25:22;;;;;;;0.40;0.40;;;7.50;99.90;;;;;;4400790;32;20097;-59
2023/11/16 00:27:48;;;;;;;0.37;0.37;;;7.50;99.90;;;;;;4403372;32;20131;-59
2023/11/16 00:30:14;;;;;;;0.40;0.40;;;7.60;99.90;;;;;;4402958;32;20057;-59
2023/11/16 00:32:39;;;;;;;0.40;0.40;;;7.60;99.90;;;;;;4400626;32;21151;-58
2023/11/16 00:35:06;;;;;;;2.22;0.32;;;7.50;99.90;;;;;;4399647;32;20077;-59
2023/11/16 00:37:32;;;;;;;0.30;0.30;;;7.60;99.90;;;;;;4401466;32;20062;-59
2023/11/16 00:39:59;;;;;;;0.60;0.60;;;7.50;99.90;;;;;;4385909;32;20462;-60
2023/11/16 00:42:24;;;;;;;0.43;0.43;;;7.50;99.90;;;;;;4402912;32;20086;-56
2023/11/16 00:44:50;;;;;;;0.30;0.30;;;7.50;99.90;;;;;;4400957;32;20058;-60
2023/11/16 00:47:19;;;;;;;0.35;0.35;;;7.50;99.90;;;;;;4401978;32;20070;-61
2023/11/16 00:49:46;;;;;;;0.22;0.22;;;7.60;99.90;;;;;;4405226;32;20086;-59
2023/11/16 00:52:12;;;;;;;0.50;0.50;;;7.50;99.90;;;;;;4402943;32;20061;-60
2023/11/16 00:54:37;;;;;;;0.32;0.32;;;7.60;99.90;;;;;;4402085;32;20112;-60
2023/11/16 00:57:03;;;;;;;0.30;0.30;;;7.60;99.90;;;;;;4403704;32;20534;-60
2023/11/16 00:59:29;;;;;;;0.40;0.40;;;7.60;99.90;;;;;;4406409;32;20113;-59
2023/11/16 01:01:58;;;;;;;0.45;0.45;;;7.50;99.90;;;;;;4405283;32;20133;-60
2023/11/16 01:04:24;;;;;;;0.30;0.30;;;7.60;99.90;;;;;;4402803;32;20058;-60
2023/11/16 01:06:49;;;;;;;0.50;0.50;;;7.50;99.90;;;;;;4405711;32;20119;-60
2023/11/16 01:09:16;;;;;;;0.40;0.40;;;7.50;99.90;;;;;;4406014;32;20530;-60
2023/11/16 01:11:42;;;;;;;0.28;0.28;;;7.50;99.90;;;;;;4402284;32;20110;-59
2023/11/16 01:14:08;;;;;;;1.65;1.05;;;7.60;99.90;;;;;;4402706;32;20140;-59
2023/11/16 01:16:41;;;;;;;0.30;0.30;;;7.60;99.90;;;;;;4405739;32;20233;-59
2023/11/16 01:19:08;;;;;;;0.30;0.30;;;7.50;99.90;;;;;;4405362;32;20116;-59
2023/11/16 01:21:41;;;;;;;31.02;1.40;;;7.60;99.90;;;;;;4388833;32;20679;-60
2023/11/16 01:24:08;;;;;;;3.10;0.47;;;7.60;99.90;;;;;;4404030;32;20083;-60
2023/11/16 01:26:34;;;;;;;0.30;0.30;;;7.50;99.90;;;;;;4406806;32;20090;-59
2023/11/16 01:29:05;;;;;;;0.30;0.30;;;7.50;99.90;;;;;;4405319;32;20127;-58
2023/11/16 01:31:30;;;;;;;0.40;0.40;;;7.50;99.90;;;;;;4407103;32;20081;-59
2023/11/16 01:33:56;;;;;;;0.30;0.30;;;7.50;99.90;;;;;;4404810;32;20549;-60
2023/11/16 01:36:24;;;;;;;0.35;0.35;;;7.50;99.90;;;;;;4405280;32;20086;-60
2023/11/16 01:38:50;;;;;;;0.37;0.37;;;7.40;99.90;;;;;;4403052;32;20083;-60
2023/11/16 01:41:16;;;;;;;0.32;0.32;;;7.50;99.90;;;;;;4406550;32;20676;-59
2023/11/16 01:43:42;;;;;;;0.43;0.43;;;7.40;99.90;;;;;;4404387;32;20066;-59
2023/11/16 01:46:09;;;;;;;0.30;0.30;;;7.40;99.90;;;;;;4404513;32;20528;-59
2023/11/16 01:48:37;;;;;;;0.40;0.40;;;7.40;99.90;;;;;;4402925;32;20086;-60
2023/11/16 01:51:04;;;;;;;0.28;0.28;;;7.50;99.90;;;;;;4404386;32;20070;-60
2023/11/16 01:53:36;;;;;;;0.30;0.30;;;7.50;99.90;;;;;;4401058;32;20117;-59
2023/11/16 01:56:03;;;;;;;0.20;0.20;;;7.50;99.90;;;;;;4404049;32;20447;-59
2023/11/16 01:58:31;;;;;;;0.30;0.30;;;7.50;99.90;;;;;;4403891;32;20102;-59
2023/11/16 02:00:57;;;;;;;0.30;0.30;;;7.50;99.90;;;;;;4388481;32;20085;-59
2023/11/16 02:03:22;;;;;;;0.30;0.30;;;7.60;99.90;;;;;;4402997;32;20420;-60
2023/11/16 02:05:48;;;;;;;0.28;0.28;;;7.60;99.90;;;;;;4401563;32;20086;-59
2023/11/16 02:08:13;;;;;;;0.37;0.37;;;7.60;99.90;;;;;;4403925;32;20094;-60
2023/11/16 02:10:40;;;;;;;0.50;0.50;;;7.60;99.90;;;;;;4404003;32;20481;-58
2023/11/16 02:13:23;;;;;;;1.02;0.70;;;7.60;99.90;;;;;;4403664;32;20094;-58
2023/11/16 02:15:49;;;;;;;0.70;0.70;;;7.60;99.90;;;;;;4399595;32;20757;-59
2023/11/16 02:18:16;;;;;;;0.30;0.30;;;7.60;99.90;;;;;;4400848;32;20117;-59
2023/11/16 02:20:47;;;;;;;0.30;0.30;;;7.60;99.90;;;;;;4400958;32;20179;-58
2023/11/16 02:23:13;;;;;;;0.50;0.50;;;7.60;99.90;;;;;;4400477;32;20102;-59
2023/11/16 02:25:44;;;;;;;0.40;0.40;;;7.60;99.90;;;;;;4402236;32;20074;-58
2023/11/16 02:28:10;;;;;;;0.30;0.30;;;7.60;99.90;;;;;;4405713;32;20178;-60
2023/11/16 02:30:36;;;;;;;0.30;0.30;;;7.70;99.90;;;;;;4390805;32;20062;-60
2023/11/16 02:33:05;;;;;;;1.50;0.52;;;7.60;99.90;;;;;;4401782;32;20216;-59
2023/11/16 02:35:33;;;;;;;0.40;0.40;;;7.70;99.90;;;;;;4401339;32;20073;-59
2023/11/16 02:37:59;;;;;;;0.50;0.50;;;7.70;99.90;;;;;;4403872;32;20470;-58
2023/11/16 02:40:25;;;;;;;0.32;0.32;;;7.70;99.90;;;;;;4403177;32;20144;-60
2023/11/16 02:42:52;;;;;;;0.30;0.30;;;7.70;99.90;;;;;;4401076;32;20112;-60
2023/11/16 02:45:17;;;;;;;0.25;0.25;;;7.70;99.90;;;;;;4403604;32;20093;-59
2023/11/16 02:47:43;;;;;;;0.40;0.40;;;7.70;99.90;;;;;;4404281;32;20411;-60
2023/11/16 02:50:09;;;;;;;1.70;0.50;;;7.70;99.90;;;;;;4404506;32;20140;-59
2023/11/16 02:52:34;;;;;;;0.22;0.22;;;7.70;99.90;;;;;;4401313;32;20062;-59
2023/11/16 02:55:00;;;;;;;0.30;0.30;;;7.70;99.90;;;;;;4402804;32;20086;-60
2023/11/16 02:57:29;;;;;;;0.30;0.30;;;7.60;99.90;;;;;;4403077;32;20082;-60
2023/11/16 02:59:54;;;;;;;0.40;0.40;;;7.60;99.90;;;;;;4403778;32;20086;-60
2023/11/16 03:02:20;;;;;;;2.03;1.40;;;7.60;99.90;;;;;;4400714;32;20054;-60
2023/11/16 03:04:46;;;;;;;0.40;0.40;;;7.60;99.90;;;;;;4403249;32;20082;-59
2023/11/16 03:07:11;;;;;;;0.30;0.30;;;7.70;99.90;;;;;;4401243;32;20105;-59
2023/11/16 03:09:37;;;;;;;0.30;0.30;;;7.60;99.90;;;;;;4402626;32;20140;-59
2023/11/16 03:12:03;;;;;;;0.40;0.40;;;7.60;99.90;;;;;;4404453;32;20111;-59
2023/11/16 03:14:28;;;;;;;2.25;1.77;;;7.70;99.90;;;;;;4402500;32;20078;-60
2023/11/16 03:16:57;;;;;;;0.30;0.30;;;7.70;99.90;;;;;;4400203;32;20062;-59
2023/11/16 03:19:23;;;;;;;2.92;0.55;;;7.60;99.90;;;;;;4400033;32;20082;-60
2023/11/16 03:21:49;;;;;;;0.40;0.40;;;7.70;99.90;;;;;;4404608;32;20663;-58
2023/11/16 03:24:15;;;;;;;0.30;0.30;;;7.70;99.90;;;;;;4399432;32;20066;-59
2023/11/16 03:26:41;;;;;;;0.20;0.20;;;7.60;99.90;;;;;;4398156;32;20374;-59
2023/11/16 03:29:07;;;;;;;1.10;0.75;;;7.70;99.90;;;;;;4402592;32;20075;-60
2023/11/16 03:31:35;;;;;;;0.47;0.30;;;7.70;99.90;;;;;;4399455;32;20133;-59
2023/11/16 03:34:04;;;;;;;1.40;0.70;;;7.70;99.90;;;;;;4399404;32;20078;-59
2023/11/16 03:36:30;;;;;;;0.50;0.50;;;7.80;99.90;;;;;;4401073;32;20078;-59
2023/11/16 03:38:57;;;;;;;0.30;0.30;;;7.80;99.90;;;;;;4404323;32;20079;-58
2023/11/16 03:41:23;;;;;;;0.30;0.30;;;7.70;99.90;;;;;;4401694;32;20086;-59
2023/11/16 03:43:49;;;;;;;0.20;0.20;;;7.70;99.90;;;;;;4401140;32;20082;-59
2023/11/16 03:46:14;;;;;;;2.40;1.45;;;7.70;99.90;;;;;;4404951;32;20120;-59
2023/11/16 03:48:40;;;;;;;2.17;0.65;;;7.70;99.90;;;;;;4403859;32;20062;-58
2023/11/16 03:51:06;;;;;;;0.37;0.37;;;7.70;99.90;;;;;;4398827;32;20448;-60
2023/11/16 03:53:32;;;;;;;0.30;0.30;;;7.70;99.90;;;;;;4402535;32;20103;-59
2023/11/16 03:55:59;;;;;;;0.30;0.30;;;7.60;99.90;;;;;;4401389;32;20069;-60
2023/11/16 03:58:25;;;;;;;0.30;0.30;;;7.60;99.90;;;;;;4399970;32;20152;-58
2023/11/16 04:00:51;;;;;;;0.40;0.40;;;7.70;99.90;;;;;;4403168;32;20088;-58
2023/11/16 04:03:16;;;;;;;0.65;0.65;;;7.70;99.90;;;;;;4401565;32;20082;-59
2023/11/16 04:05:42;;;;;;;0.40;0.40;;;7.70;99.90;;;;;;4399025;32;20054;-59
2023/11/16 04:08:07;;;;;;;0.43;0.43;;;7.80;99.90;;;;;;4401841;32;21038;-58
2023/11/16 04:10:33;;;;;;;0.85;0.82;;;7.70;99.90;;;;;;4402732;32;20184;-58
2023/11/16 04:12:59;;;;;;;0.20;0.20;;;7.70;99.90;;;;;;4402466;32;20970;-60
2023/11/16 04:15:25;;;;;;;0.28;0.28;;;7.70;99.90;;;;;;4399132;32;20163;-60
2023/11/16 04:17:51;;;;;;;0.40;0.40;;;7.70;99.90;;;;;;4404872;32;20124;-60
2023/11/16 04:20:16;;;;;;;0.47;0.47;;;7.70;99.90;;;;;;4402011;32;20135;-59
2023/11/16 04:22:43;;;;;;;0.25;0.25;;;7.70;99.90;;;;;;4388174;32;20078;-59
2023/11/16 04:25:22;;;;;;;0.73;0.52;;;7.80;99.90;;;;;;4401693;32;20545;-59
2023/11/16 04:27:49;;;;;;;0.20;0.20;;;7.80;99.90;;;;;;4402293;32;20128;-57
2023/11/16 04:30:16;;;;;;;14.77;1.35;;;7.80;99.90;;;;;;4403717;32;20069;-58
2023/11/16 04:32:45;;;;;;;0.30;0.30;;;7.80;99.90;;;;;;4402641;32;20102;-60
2023/11/16 04:35:13;;;;;;;0.30;0.30;;;7.80;99.90;;;;;;4402735;32;20081;-59
2023/11/16 04:37:38;;;;;;;0.43;0.43;;;7.80;99.90;;;;;;4399893;32;20133;-60
2023/11/16 04:40:13;;;;;;;0.20;0.20;;;7.80;99.90;;;;;;4402634;32;20085;-58
2023/11/16 04:42:41;;;;;;;0.73;0.45;;;7.70;99.90;;;;;;4403157;32;20160;-59
2023/11/16 04:45:11;;;;;;;0.30;0.30;;;7.70;99.90;;;;;;4388559;32;20066;-59
2023/11/16 04:47:38;;;;;;;0.30;0.30;;;7.70;99.90;;;;;;4403553;32;20125;-59
2023/11/16 04:50:06;;;;;;;0.20;0.20;;;7.70;99.90;;;;;;4398032;32;20062;-59
2023/11/16 04:52:34;;;;;;;0.30;0.30;;;7.80;99.90;;;;;;4388254;32;20085;-60
2023/11/16 04:54:59;;;;;;;2.37;1.10;;;7.70;99.90;;;;;;4403360;32;20086;-60
2023/11/16 04:57:25;;;;;;;0.40;0.40;;;7.70;99.90;;;;;;4402223;32;20099;-60
2023/11/16 04:59:50;;;;;;;0.20;0.20;;;7.70;99.90;;;;;;4401768;32;20446;-60
2023/11/16 05:02:16;;;;;;;0.28;0.28;;;7.70;99.90;;;;;;4401234;32;20086;-59
2023/11/16 05:04:44;;;;;;;2.30;0.95;;;7.60;99.90;;;;;;4389133;32;20070;-60
2023/11/16 05:07:10;;;;;;;0.40;0.40;;;7.60;99.90;;;;;;4400342;32;20157;-60
2023/11/16 05:09:36;;;;;;;0.45;0.45;;;7.70;99.90;;;;;;4388549;32;20458;-59
2023/11/16 05:12:02;;;;;;;0.73;0.73;;;7.70;99.90;;;;;;4402019;32;20127;-59
2023/11/16 05:14:28;;;;;;;0.30;0.30;;;7.70;99.90;;;;;;4400273;32;20069;-60
2023/11/16 05:16:53;;;;;;;0.20;0.20;;;7.80;99.90;;;;;;4401425;32;20054;-59
2023/11/16 05:19:19;;;;;;;0.40;0.40;;;7.80;99.90;;;;;;4402283;32;20085;-60
2023/11/16 05:21:45;;;;;;;0.32;0.32;;;7.80;99.90;;;;;;4397122;32;21530;-59
2023/11/16 05:24:10;;;;;;;0.30;0.30;;;7.80;99.90;;;;;;4402495;32;20431;-59
2023/11/16 05:26:38;;;;;;;3.83;1.75;;;7.70;99.90;;;;;;4399632;32;20119;-60
2023/11/16 05:29:04;;;;;;;0.30;0.30;;;7.70;99.90;;;;;;4403903;32;20528;-59
2023/11/16 05:31:30;;;;;;;2.53;0.68;;;7.70;99.90;;;;;;4400240;32;20077;-60
2023/11/16 05:33:57;;;;;;;0.40;0.40;;;7.70;99.90;;;;;;4401110;32;20688;-60
2023/11/16 05:36:22;;;;;;;0.30;0.30;;;7.70;99.90;;;;;;4401982;32;20601;-60
2023/11/16 05:38:49;;;;;;;0.45;0.45;;;7.80;99.90;;;;;;4403421;32;20133;-60
2023/11/16 05:41:15;;;;;;;0.37;0.37;;;7.80;99.90;;;;;;4401034;32;20062;-60
2023/11/16 05:43:40;;;;;;;0.30;0.30;;;7.70;99.90;;;;;;4402255;32;20065;-60
2023/11/16 05:46:06;;;;;;;0.43;0.43;;;7.80;99.90;;;;;;4404993;32;20083;-60
2023/11/16 05:48:32;;;;;;;0.20;0.20;;;7.80;99.90;;;;;;4405893;32;20061;-59
2023/11/16 05:50:57;;;;;;;0.30;0.30;;;7.80;99.90;;;;;;4399066;32;20092;-60
2023/11/16 05:53:23;;;;;;;0.55;0.55;;;7.80;99.90;;;;;;4402029;32;20058;-59
2023/11/16 05:55:49;;;;;;;0.50;0.50;;;7.80;99.90;;;;;;4403736;32;20112;-59
2023/11/16 05:58:14;;;;;;;0.30;0.30;;;7.80;99.90;;;;;;4402521;32;20057;-59
2023/11/16 06:00:40;;;;;;;0.50;0.50;;;7.80;99.90;;;;;;4399649;32;20628;-60
2023/11/16 06:03:06;;;;;;;38.75;0.93;;;7.90;99.90;;;;;;4403291;32;20062;-60
2023/11/16 06:05:33;;;;;;;2.40;1.37;;;7.80;99.90;;;;;;4399232;32;20619;-58
2023/11/16 06:07:59;;;;;;;0.40;0.40;;;7.90;99.90;;;;;;4379963;32;20089;-60
2023/11/16 06:10:24;;;;;;;0.30;0.30;;;7.90;99.90;;;;;;4397493;32;20057;-60
2023/11/16 06:12:50;;;;;;;0.82;0.52;;;7.90;99.90;;;;;;4396617;32;20184;-60
2023/11/16 06:15:15;;;;;;;0.37;0.37;;;7.80;99.90;;;;;;4387937;32;20806;-60
2023/11/16 06:17:42;;;;;;;0.60;0.60;;;7.80;99.90;;;;;;4398821;32;20383;-59
2023/11/16 06:20:10;;;;;;;2.62;1.55;;;7.80;99.90;;;;;;4390498;32;20090;-60
2023/11/16 06:22:37;;;;;;;0.77;0.43;;;7.90;99.90;;;;;;4390598;32;20136;-59
2023/11/16 06:25:04;;;;;;;0.40;0.40;;;7.80;99.90;;;;;;4400457;32;20082;-60
2023/11/16 06:27:31;;;;;;;0.57;0.57;;;7.80;99.90;;;;;;4380575;32;20097;-59
2023/11/16 06:29:56;;;;;;;0.35;0.35;;;7.90;99.90;;;;;;4398262;32;20769;-60
2023/11/16 06:32:22;;;;;;;0.60;0.40;;;7.80;99.90;;;;;;4399586;32;20111;-57
2023/11/16 06:34:48;;;;;;;0.40;0.40;;;7.80;99.90;;;;;;4391705;32;20121;-60
2023/11/16 06:37:15;;;;;;;0.30;0.30;;;7.80;99.90;;;;;;4379260;32;20068;-59
2023/11/16 06:39:40;;;;;;;0.40;0.40;;;7.80;99.90;;;;;;4398304;32;20124;-59
2023/11/16 06:42:06;;;;;;;0.30;0.30;;;7.90;99.90;;;;;;4393997;32;20066;-60
2023/11/16 06:44:33;;;;;;;0.80;0.50;;;7.90;99.90;;;;;;4389669;32;20490;-60
2023/11/16 06:46:58;;;;;;;0.30;0.30;;;7.90;99.90;;;;;;4394693;32;20110;-59
2023/11/16 06:49:26;;;;;;;0.25;0.25;;;7.90;99.90;;;;;;4394880;32;20429;-57
2023/11/16 06:51:53;;;;;;;0.30;0.30;;;8.00;99.90;;;;;;4376783;32;20436;-59
2023/11/16 06:54:18;;;;;;;2.83;0.95;;;8.00;99.90;;;;;;4360176;32;20106;-60
2023/11/16 06:56:44;;;;;;;0.25;0.25;;;7.90;99.90;;;;;;4388206;32;20522;-61
2023/11/16 06:59:12;;;;;;;0.35;0.35;;;8.00;99.90;;;;;;4370625;32;20792;-60
2023/11/16 07:01:39;;;;;;;0.43;0.43;;;8.00;99.90;;;;;;4360448;32;20110;-59
2023/11/16 07:04:05;;;;;;;0.50;0.50;;;8.00;99.90;;;;;;4353612;32;20256;-58
2023/11/16 07:06:31;;;;;;;0.32;0.32;;;8.00;99.90;;;;;;4352726;32;20128;-57
2023/11/16 07:08:56;;;;;;;0.40;0.40;;;8.00;99.90;;;;;;4351915;32;20149;-58
2023/11/16 07:11:22;;;;;;;0.30;0.30;;;8.00;99.90;;;;;;4373243;32;20446;-60
2023/11/16 07:13:47;;;;;;;0.30;0.30;;;8.00;99.90;;;;;;4367342;32;20085;-57
2023/11/16 07:16:13;;;;;;;0.30;0.30;;;8.10;99.90;;;;;;4374038;32;20089;-58
2023/11/16 07:18:39;;;;;;;0.40;0.40;;;8.10;99.90;;;;;;4358704;32;20167;-59
2023/11/16 07:21:06;;;;;;;0.40;0.40;;;8.10;99.90;;;;;;4361425;32;20152;-60
2023/11/16 07:23:32;;;;;;;0.68;0.62;;;8.10;99.90;;;;;;4353936;32;21066;-60
2023/11/16 07:26:00;;;;;;;0.30;0.30;;;8.10;99.90;;;;;;4363926;32;20467;-55
2023/11/16 07:28:26;;;;;;;1.27;1.17;;;8.20;99.90;;;;;;4354947;32;20209;-58
2023/11/16 07:30:52;;;;;;;0.52;0.47;;;8.20;99.90;;;;;;4363484;32;20106;-56
2023/11/16 07:33:18;;;;;;;3.70;0.50;;;8.20;99.90;;;;;;4365502;32;20082;-59
2023/11/16 07:35:45;;;;;;;0.32;0.32;;;8.20;99.90;;;;;;4366348;32;20088;-58
2023/11/16 07:38:12;;;;;;;0.30;0.30;;;8.10;99.90;;;;;;4364075;32;20102;-59
2023/11/16 07:40:38;;;;;;;3.42;0.50;;;8.20;99.90;;;;;;4361454;32;20545;-60
2023/11/16 07:43:03;;;;;;;0.45;0.45;;;8.20;99.90;;;;;;4361375;32;20074;-60
2023/11/16 07:45:29;;;;;;;11.80;0.57;;;8.20;99.90;;;;;;4364789;32;20800;-59
2023/11/16 07:47:59;;;;;;;0.30;0.30;;;8.20;99.90;;;;;;4363155;32;20073;-60
2023/11/16 07:50:26;;;;;;;16.42;0.50;;;8.20;99.90;;;;;;4360589;32;20097;-60
2023/11/16 07:52:53;;;;;;;0.40;0.40;;;8.20;99.90;;;;;;4358920;32;20849;-60
2023/11/16 07:55:21;;;;;;;0.37;0.37;;;8.20;99.90;;;;;;4365257;32;20212;-59
2023/11/16 07:57:49;;;;;;;1.40;1.15;;;8.30;99.90;;;;;;4347880;32;21037;-58
2023/11/16 08:00:22;;;;;;;2.97;0.40;;;8.20;99.90;;;;;;4342556;32;21441;-58
2023/11/16 08:03:55;;;;;;;3.30;0.73;;;8.20;99.90;;;;;;4357661;32;20125;-59
2023/11/16 08:05:37;;;;;;;0.50;0.50;;;8.20;99.90;;;;;;4365873;32;20680;-58
2023/11/16 08:08:03;;;;;;;0.25;0.25;;;8.30;99.90;;;;;;4377447;32;20685;-59
2023/11/16 08:10:29;;;;;;;0.30;0.30;;;8.10;99.90;;;;;;4362588;32;20565;-60
2023/11/16 08:12:56;;;;;;;0.22;0.22;;;8.10;99.90;;;;;;4367599;32;20081;-56
2023/11/16 08:15:25;;;;;;;0.37;0.37;;;8.20;99.90;;;;;;4371105;32;20086;-59
2023/11/16 08:17:52;;;;;;;0.40;0.40;;;8.10;99.90;;;;;;4351642;32;20117;-60
2023/11/16 08:20:23;;;;;;;0.43;0.43;;;8.10;99.90;;;;;;4358554;32;20884;-58
2023/11/16 08:22:52;;;;;;;0.43;0.43;;;8.10;99.90;;;;;;4365206;32;20626;-60
2023/11/16 08:25:21;;;;;;;3.83;1.17;;;8.10;99.90;;;;;;4352222;32;20065;-61
2023/11/16 08:27:47;;;;;;;0.68;0.68;;;8.10;99.90;;;;;;4343825;32;20727;-58
2023/11/16 08:30:13;;;;;;;0.93;0.93;;;8.20;99.90;;;;;;4369563;32;20110;-61
2023/11/16 08:32:38;;;;;;;0.40;0.40;;;8.20;99.90;;;;;;4371644;32;20106;-59
2023/11/16 08:35:04;;;;;;;0.65;0.65;;;8.20;99.90;;;;;;4370379;32;20088;-59
2023/11/16 08:37:30;;;;;;;3.62;1.48;;;8.20;99.90;;;;;;4371066;32;20089;-59
2023/11/16 08:39:56;;;;;;;0.20;0.20;;;8.20;99.90;;;;;;4382159;32;20707;-60
2023/11/16 08:42:24;;;;;;;0.30;0.30;;;8.20;99.90;;;;;;4372538;32;20097;-59
2023/11/16 08:44:50;;;;;;;0.40;0.40;;;8.20;99.90;;;;;;4378927;32;20389;-59
2023/11/16 08:47:17;;;;;;;0.68;0.68;;;8.20;99.90;;;;;;4372967;32;20094;-59
2023/11/16 08:49:43;;;;;;;0.22;0.22;;;8.20;99.90;;;;;;4360994;32;20620;-59
2023/11/16 08:52:10;;;;;;;0.32;0.32;;;8.20;99.90;;;;;;4362319;32;20101;-59
2023/11/16 08:54:36;;;;;;;0.40;0.40;;;8.20;99.90;;;;;;4367338;32;20160;-58
2023/11/16 08:57:02;;;;;;;1.30;1.20;;;8.30;99.90;;;;;;4361181;32;20102;-59
2023/11/16 08:59:28;;;;;;;0.32;0.32;;;8.30;99.90;;;;;;4367519;32;20090;-59
2023/11/16 09:01:56;;;;;;;0.70;0.70;;;8.30;99.90;;;;;;4370115;32;21551;-59
2023/11/16 09:04:23;;;;;;;8.38;0.95;;;8.30;99.90;;;;;;4376740;32;20073;-59
2023/11/16 09:06:50;;;;;;;8.25;0.73;;;8.30;99.90;;;;;;4367723;32;20959;-59
2023/11/16 09:09:47;;;;;;;0.52;0.50;;;8.30;99.90;;;;;;4368867;32;20106;-60
2023/11/16 09:12:05;;;;;;;0.30;0.30;;;8.30;99.90;;;;;;4356752;32;20468;-59
2023/11/16 09:14:34;;;;;;;0.90;0.60;;;8.30;99.90;;;;;;4370579;32;20090;-61
2023/11/16 09:17:02;;;;;;;0.20;0.20;;;8.30;99.90;;;;;;4368056;32;20726;-60
2023/11/16 09:19:28;;;;;;;19.65;2.97;;;8.40;99.90;;;;;;4367526;32;20106;-59
2023/11/16 09:21:54;;;;;;;0.37;0.37;;;8.40;99.90;;;;;;4368199;32;20132;-61
2023/11/16 09:24:21;;;;;;;0.30;0.30;;;8.60;99.90;;;;;;4362710;32;20082;-60
2023/11/16 09:26:48;;;;;;;0.20;0.20;;;8.60;99.90;;;;;;4353245;32;21011;-60
2023/11/16 09:29:15;;;;;;;2.35;1.35;;;8.70;99.90;;;;;;4358888;32;20570;-61
2023/11/16 09:31:43;;;;;;;0.30;0.30;;;8.70;99.90;;;;;;4363072;32;20094;-61
2023/11/16 09:34:10;;;;;;;0.28;0.28;;;8.70;99.90;;;;;;4365558;32;20109;-58
2023/11/16 09:36:37;;;;;;;0.40;0.40;;;8.80;99.90;;;;;;4363714;32;20557;-59
2023/11/16 09:39:07;;;;;;;0.43;0.43;;;8.80;99.90;;;;;;4362996;32;20121;-60
2023/11/16 09:41:36;;;;;;;0.30;0.30;;;8.90;99.90;;;;;;4325865;32;20196;-60
2023/11/16 09:44:06;;;;;;;0.30;0.30;;;8.90;99.90;;;;;;4354033;32;21083;-60
2023/11/16 09:46:32;;;;;;;0.30;0.30;;;8.80;99.90;;;;;;4354780;32;21497;-59
2023/11/16 09:48:59;;;;;;;0.20;0.20;;;8.80;99.90;;;;;;4353671;32;20144;-60
2023/11/16 09:51:29;;;;;;;3.03;1.20;;;8.60;99.90;;;;;;4362344;32;20082;-61
2023/11/16 09:53:58;;;;;;;0.50;0.50;;;8.60;99.90;;;;;;4359359;32;21041;-63
2023/11/16 09:56:27;;;;;;;0.75;0.60;;;8.60;99.90;;;;;;4365552;32;21659;-61
2023/11/16 09:59:02;;;;;;;0.22;0.22;;;8.70;99.90;;;;;;4357026;32;20069;-58
2023/11/16 10:01:31;;;;;;;0.28;0.28;;;8.80;99.90;;;;;;4360896;32;20077;-62
2023/11/16 10:03:56;;;;;;;0.30;0.30;;;8.90;99.90;;;;;;4369750;32;20093;-62
2023/11/16 10:06:22;;;;;;;0.35;0.35;;;9.20;99.90;;;;;;4376356;32;20094;-60
2023/11/16 10:08:53;;;;;;;0.25;0.25;;;9.30;99.90;;;;;;4368572;32;20814;-60
2023/11/16 10:11:23;;;;;;;0.28;0.28;;;9.30;99.90;;;;;;4366909;32;20089;-59
2023/11/16 10:13:54;;;;;;;0.30;0.30;;;9.20;99.90;;;;;;4351973;32;21029;-60
2023/11/16 10:16:25;;;;;;;2.10;1.05;;;9.30;99.90;;;;;;4356933;32;20124;-60
2023/11/16 10:18:59;;;;;;;3.40;1.00;;;9.40;99.90;;;;;;4351832;32;20086;-60
2023/11/16 10:21:25;;;;;;;0.65;0.65;;;9.30;99.90;;;;;;4364460;32;22207;-60
2023/11/16 10:23:51;;;;;;;0.25;0.25;;;9.30;99.90;;;;;;4353678;32;20090;-60
2023/11/16 10:26:19;;;;;;;0.20;0.20;;;9.30;99.90;;;;;;4374261;32;20085;-60
2023/11/16 10:28:53;;;;;;;0.20;0.20;;;9.30;99.90;;;;;;4352369;32;20673;-60
2023/11/16 10:31:21;;;;;;;0.37;0.37;;;9.30;99.90;;;;;;4332946;32;20151;-60
2023/11/16 10:33:46;;;;;;;0.20;0.20;;;9.20;99.90;;;;;;4360801;32;21004;-61
2023/11/16 10:36:13;;;;;;;0.30;0.30;;;9.10;99.90;;;;;;4365131;32;20861;-60
2023/11/16 10:38:38;;;;;;;0.30;0.30;;;9.00;99.90;;;;;;4376722;32;20191;-59
2023/11/16 10:41:05;;;;;;;0.50;0.50;;;8.80;99.90;;;;;;4372557;32;20629;-59
2023/11/16 10:43:30;;;;;;;0.30;0.30;;;8.80;99.90;;;;;;4370301;32;20101;-60
2023/11/16 10:45:59;;;;;;;0.20;0.20;;;8.90;99.90;;;;;;4368009;32;20085;-61
2023/11/16 10:48:25;;;;;;;0.20;0.20;;;9.00;99.90;;;;;;4344697;32;20134;-60
2023/11/16 10:50:52;;;;;;;0.20;0.20;;;9.10;99.90;;;;;;4372751;32;20123;-61
2023/11/16 10:53:22;;;;;;;0.30;0.30;;;9.30;99.90;;;;;;4368264;32;20106;-60
2023/11/16 10:55:50;;;;;;;0.30;0.30;;;9.20;99.90;;;;;;4361495;32;20481;-60
2023/11/16 10:58:20;;;;;;;0.28;0.28;;;9.40;99.90;;;;;;4369638;32;20082;-60
2023/11/16 11:00:50;;;;;;;0.40;0.40;;;9.30;99.90;;;;;;4368289;32;20136;-60
2023/11/16 11:03:17;;;;;;;0.30;0.30;;;9.30;99.90;;;;;;4364956;32;20465;-59
2023/11/16 11:05:48;;;;;;;0.30;0.30;;;9.20;99.90;;;;;;4369718;32;21226;-60
2023/11/16 11:08:17;;;;;;;0.30;0.30;;;9.20;99.90;;;;;;4365141;32;20086;-59
2023/11/16 11:10:46;;;;;;;0.22;0.22;;;9.20;99.90;;;;;;4363695;32;20110;-61
2023/11/16 11:13:14;;;;;;;0.30;0.30;;;9.30;99.90;;;;;;4369717;32;20451;-61
2023/11/16 11:15:40;;;;;;;3.10;0.60;;;9.30;99.90;;;;;;4358135;32;20098;-61
2023/11/16 11:18:05;;;;;;;0.30;0.30;;;9.40;99.90;;;;;;4357969;32;20069;-62
2023/11/16 11:20:36;;;;;;;0.30;0.30;;;9.50;99.90;;;;;;4370465;32;20485;-61
2023/11/16 11:23:04;;;;;;;0.40;0.40;;;9.70;99.90;;;;;;4359050;32;20101;-61
2023/11/16 11:25:32;;;;;;;0.32;0.32;;;10.00;99.90;;;;;;4354660;32;20436;-62
2023/11/16 11:27:57;;;;;;;0.22;0.22;;;10.10;99.90;;;;;;4377013;32;20452;-61
2023/11/16 11:30:23;;;;;;;1.45;0.93;;;10.00;99.90;;;;;;4380621;32;20360;-62
2023/11/16 11:32:56;;;;;;;0.20;0.20;;;10.00;99.90;;;;;;4384524;32;20510;-63
2023/11/16 11:35:25;;;;;;;0.20;0.20;;;10.00;99.90;;;;;;4379014;32;21414;-61
2023/11/16 11:37:52;;;;;;;0.30;0.30;;;10.00;99.90;;;;;;4384199;32;20098;-61
2023/11/16 11:40:23;;;;;;;0.30;0.30;;;10.10;99.90;;;;;;4388462;32;20152;-62
2023/11/16 11:42:50;;;;;;;0.30;0.30;;;10.10;99.90;;;;;;4386020;32;20366;-62
2023/11/16 11:45:19;;;;;;;2.05;0.93;;;10.00;99.90;;;;;;4365652;32;20089;-60
2023/11/16 11:47:47;;;;;;;0.40;0.40;;;10.20;99.90;;;;;;4380129;32;20191;-60
2023/11/16 11:50:17;;;;;;;0.28;0.28;;;10.40;99.90;;;;;;4376466;32;108667;-62
2023/11/16 11:52:45;;;;;;;0.30;0.30;;;10.40;99.90;;;;;;4373221;32;20610;-61
2023/11/16 11:55:12;;;;;;;0.30;0.30;;;10.60;99.90;;;;;;4377102;32;20073;-61
2023/11/16 11:57:39;;;;;;;0.30;0.30;;;11.10;99.90;;;;;;4365808;32;20557;-61
2023/11/16 12:00:06;;;;;;;0.30;0.30;;;11.30;99.90;;;;;;4372558;32;21163;-61
2023/11/16 12:02:33;;;;;;;0.30;0.30;;;11.20;99.90;;;;;;4380788;32;20851;-60
2023/11/16 12:04:59;;;;;;;0.30;0.30;;;11.20;99.90;;;;;;4363392;32;20554;-61
2023/11/16 12:07:25;;;;;;;0.30;0.30;;;11.50;99.90;;;;;;4378762;32;20302;-61
2023/11/16 12:09:52;;;;;;;0.30;0.30;;;11.40;99.90;;;;;;4376122;32;20304;-62
2023/11/16 12:12:19;;;;;;;0.50;0.50;;;11.30;99.90;;;;;;4376499;32;20675;-61
2023/11/16 12:14:47;;;;;;;0.30;0.30;;;11.10;99.90;;;;;;4374152;32;20145;-62
2023/11/16 12:17:16;;;;;;;0.40;0.40;;;10.70;99.90;;;;;;4355524;32;20438;-61
2023/11/16 12:19:42;;;;;;;0.30;0.30;;;10.60;99.90;;;;;;4380349;32;20497;-63
2023/11/16 12:22:10;;;;;;;0.30;0.30;;;10.50;99.90;;;;;;4378145;32;21462;-62
2023/11/16 12:24:36;;;;;;;0.20;0.20;;;10.30;99.90;;;;;;4381049;32;20077;-63
2023/11/16 12:27:04;;;;;;;1.10;0.77;;;10.10;99.90;;;;;;4364684;32;20444;-61
2023/11/16 12:29:30;;;;;;;0.40;0.40;;;9.90;99.90;;;;;;4377033;32;20957;-62
2023/11/16 12:31:56;;;;;;;0.30;0.30;;;9.90;99.90;;;;;;4373477;32;20085;-61
2023/11/16 12:34:24;;;;;;;0.77;0.40;;;10.20;99.90;;;;;;4371909;32;21069;-62
2023/11/16 12:36:54;;;;;;;0.22;0.22;;;10.90;99.90;;;;;;4376175;32;20105;-62
2023/11/16 12:39:29;;;;;;;0.40;0.40;;;11.30;99.90;;;;;;4370894;32;20739;-62
2023/11/16 12:41:55;;;;;;;0.40;0.40;;;11.40;99.90;;;;;;4353574;32;20429;-62
2023/11/16 12:44:23;;;;;;;0.37;0.37;;;10.80;99.90;;;;;;4358450;32;20367;-61
2023/11/16 12:46:49;;;;;;;0.30;0.30;;;10.60;99.90;;;;;;4348545;32;20415;-63
2023/11/16 12:49:14;;;;;;;0.30;0.30;;;10.50;99.90;;;;;;4378103;32;20078;-62
2023/11/16 12:51:41;;;;;;;0.40;0.40;;;10.50;99.90;;;;;;4373409;32;21450;-59
2023/11/16 12:54:06;;;;;;;0.40;0.40;;;10.30;99.90;;;;;;4364646;32;20771;-61